Adams Landing, Vermont
Current Conditions -  °F | °C
As of 7:53 AM on Friday 19 Dec 2014 (Local Time) from KPBG Reporting Station
Overcast Overcast  
Wind Chill: 14°   Ceiling: 2700
Heat Index: 25°   Visibility: 10mi
Dew Point: 18°   Wind: 13mph
Humidity: 75%   Direction: 350°N
Pressure: 30.04"   Gusts: NA
Location:  44.717°N, 73.3067°W
Report Text: KPBG 191253Z AUTO 35011KT 10SM OVC027 M04/M08 A3004 RMK AO2 SLP176 T10391078
Loading
Personal Weather Stations






























Interactive Weather Map New forecast layout! Learn more

10-Day Weather Forecast

Advertisements
Track Severe Weather on mobile